Time;durP1;ratioP1;P1;durP2;ratioP2;P2;SDS_P1;SDS_P2;PMS_P1;PMS_P2;Temp;Humidity;BMP_temperature;BMP_pressure;BME280_temperature;BME280_humidity;BME280_pressure;Samples;Min_cycle;Max_cycle;Signal;HPM_P1;HPM_P2
2022/07/31 00:00:11;;;;;;;0.73;0.40;;;;;;;;;;5050189;28;20379;-71
2022/07/31 00:02:37;;;;;;;1.67;0.47;;;;;;;;;;5053027;28;20064;-71
2022/07/31 00:05:04;;;;;;;2.13;0.70;;;;;;;;;;5053061;28;20029;-71
2022/07/31 00:07:31;;;;;;;4.90;0.67;;;;;;;;;;5052821;28;20033;-71
2022/07/31 00:09:58;;;;;;;4.50;0.90;;;;;;;;;;5033811;28;20507;-71
2022/07/31 00:12:25;;;;;;;1.17;0.60;;;;;;;;;;5031429;28;20062;-71
2022/07/31 00:14:51;;;;;;;1.37;0.60;;;;;;;;;;5027688;28;20116;-71
2022/07/31 00:17:18;;;;;;;1.33;0.43;;;;;;;;;;5027517;28;20029;-71
2022/07/31 00:19:46;;;;;;;2.77;0.63;;;;;;;;;;5027662;28;20060;-71
2022/07/31 00:22:13;;;;;;;1.20;0.50;;;;;;;;;;5037405;28;20511;-71
2022/07/31 00:24:39;;;;;;;1.37;0.60;;;;;;;;;;5052623;28;20021;-71
2022/07/31 00:27:06;;;;;;;3.10;0.60;;;;;;;;;;5052665;28;20092;-71
2022/07/31 00:29:33;;;;;;;14.03;0.43;;;;;;;;;;5052919;28;20029;-71
2022/07/31 00:31:59;;;;;;;0.87;0.40;;;;;;;;;;5046704;28;20075;-71
2022/07/31 00:34:26;;;;;;;2.97;0.90;;;;;;;;;;5029449;28;20090;-71
2022/07/31 00:36:53;;;;;;;0.00;0.00;;;;;;;;;;5030203;28;20072;-72
2022/07/31 00:39:19;;;;;;;0.37;0.27;;;;;;;;;;5027627;28;20431;-71
2022/07/31 00:41:48;;;;;;;4.17;0.40;;;;;;;;;;5027247;28;20112;-71
2022/07/31 00:44:15;;;;;;;2.07;0.60;;;;;;;;;;5029708;28;20120;-71
2022/07/31 00:46:42;;;;;;;0.80;0.47;;;;;;;;;;5037733;28;20021;-71
2022/07/31 00:49:09;;;;;;;3.63;0.83;;;;;;;;;;5052093;28;20021;-71
2022/07/31 00:51:36;;;;;;;0.10;0.10;;;;;;;;;;5050302;28;20534;-71
2022/07/31 00:54:03;;;;;;;0.10;0.10;;;;;;;;;;5052207;28;20438;-71
2022/07/31 00:56:30;;;;;;;1.33;0.50;;;;;;;;;;5049843;28;20017;-71
2022/07/31 00:58:56;;;;;;;1.50;0.47;;;;;;;;;;5046979;28;20029;-72
2022/07/31 01:01:23;;;;;;;1.27;0.67;;;;;;;;;;5043206;28;20038;-71
2022/07/31 01:03:50;;;;;;;2.37;0.83;;;;;;;;;;5027195;28;20030;-71
2022/07/31 01:06:17;;;;;;;1.57;0.67;;;;;;;;;;5029591;28;20122;-71
2022/07/31 01:08:43;;;;;;;1.23;0.70;;;;;;;;;;5033296;28;20419;-71
2022/07/31 01:11:15;;;;;;;2.33;0.80;;;;;;;;;;5036221;28;20499;-71
2022/07/31 01:13:49;;;;;;;1.17;0.60;;;;;;;;;;5036217;28;20026;-71
2022/07/31 01:16:17;;;;;;;0.73;0.40;;;;;;;;;;5037842;28;20017;-70
2022/07/31 01:18:44;;;;;;;1.10;0.60;;;;;;;;;;5053660;28;20021;-71
2022/07/31 01:21:16;;;;;;;2.37;0.90;;;;;;;;;;5050493;28;20037;-70
2022/07/31 01:23:46;;;;;;;1.43;0.60;;;;;;;;;;5050844;28;20027;-70
2022/07/31 01:26:38;;;;;;;0.30;0.30;;;;;;;;;;5049274;28;20025;-71
2022/07/31 01:29:12;;;;;;;2.80;0.40;;;;;;;;;;5025044;28;20037;-70
2022/07/31 01:31:43;;;;;;;0.30;0.23;;;;;;;;;;5036128;28;20028;-71
2022/07/31 01:34:16;;;;;;;0.37;0.30;;;;;;;;;;5035825;28;20022;-71
2022/07/31 01:36:45;;;;;;;0.33;0.20;;;;;;;;;;5038722;28;20026;-71
2022/07/31 01:39:12;;;;;;;0.60;0.30;;;;;;;;;;5055649;28;20032;-70
2022/07/31 01:41:41;;;;;;;8.40;1.20;;;;;;;;;;5051753;28;20400;-71
2022/07/31 01:44:08;;;;;;;0.90;0.50;;;;;;;;;;5050592;28;20480;-70
2022/07/31 01:46:35;;;;;;;1.87;0.83;;;;;;;;;;5048796;28;20408;-71
2022/07/31 01:49:03;;;;;;;2.77;0.87;;;;;;;;;;5030503;28;20104;-71
2022/07/31 01:51:30;;;;;;;1.87;0.77;;;;;;;;;;5033421;28;20021;-71
2022/07/31 01:53:58;;;;;;;1.60;0.80;;;;;;;;;;5035564;28;20025;-70
2022/07/31 01:56:25;;;;;;;1.50;0.67;;;;;;;;;;5035376;28;20539;-71
2022/07/31 01:58:52;;;;;;;2.10;0.63;;;;;;;;;;5054523;28;20021;-71
2022/07/31 02:01:19;;;;;;;1.57;0.70;;;;;;;;;;5055264;28;20036;-71
2022/07/31 02:03:46;;;;;;;1.40;0.77;;;;;;;;;;5052013;28;20053;-70
2022/07/31 02:06:16;;;;;;;3.30;0.53;;;;;;;;;;5050227;28;20031;-70
2022/07/31 02:08:47;;;;;;;3.90;0.83;;;;;;;;;;5031369;28;20029;-70
2022/07/31 02:11:18;;;;;;;4.73;1.33;;;;;;;;;;5030188;28;20087;-70
2022/07/31 02:13:45;;;;;;;0.37;0.37;;;;;;;;;;5032333;28;20083;-70
2022/07/31 02:16:14;;;;;;;2.37;1.17;;;;;;;;;;5036289;28;20516;-70
2022/07/31 02:18:41;;;;;;;2.60;0.93;;;;;;;;;;5035126;28;20052;-70
2022/07/31 02:21:08;;;;;;;0.40;0.40;;;;;;;;;;5033965;28;21400;-70
2022/07/31 02:23:35;;;;;;;2.20;1.00;;;;;;;;;;5034960;28;20026;-70
2022/07/31 02:26:03;;;;;;;1.83;0.80;;;;;;;;;;5043255;28;20032;-70
2022/07/31 02:28:30;;;;;;;2.17;0.80;;;;;;;;;;5049551;28;20418;-70
2022/07/31 02:30:57;;;;;;;2.67;0.87;;;;;;;;;;5047587;28;20021;-70
2022/07/31 02:33:25;;;;;;;2.63;1.07;;;;;;;;;;5049621;28;20032;-70
2022/07/31 02:35:54;;;;;;;3.47;1.20;;;;;;;;;;5052311;28;20025;-69
2022/07/31 02:38:22;;;;;;;2.43;1.10;;;;;;;;;;5054659;28;20021;-69
2022/07/31 02:40:50;;;;;;;2.10;1.00;;;;;;;;;;5037375;28;20130;-70
2022/07/31 02:43:17;;;;;;;7.00;1.27;;;;;;;;;;5032401;28;20033;-71
2022/07/31 02:45:44;;;;;;;7.17;1.47;;;;;;;;;;5034365;28;20049;-71
2022/07/31 02:48:10;;;;;;;3.70;1.60;;;;;;;;;;5031575;28;20037;-70
2022/07/31 02:50:38;;;;;;;4.07;1.63;;;;;;;;;;5044096;28;20135;-71
2022/07/31 02:53:05;;;;;;;4.33;2.20;;;;;;;;;;5049256;28;20071;-70
2022/07/31 02:55:33;;;;;;;10.77;3.00;;;;;;;;;;5049262;28;20100;-70
2022/07/31 02:58:02;;;;;;;6.07;3.03;;;;;;;;;;5051536;28;20032;-70
2022/07/31 03:00:29;;;;;;;3.60;1.67;;;;;;;;;;5040046;28;20489;-70
2022/07/31 03:02:57;;;;;;;2.27;1.07;;;;;;;;;;5034407;28;20026;-70
2022/07/31 03:05:23;;;;;;;4.20;1.20;;;;;;;;;;5034291;28;20519;-71
2022/07/31 03:07:50;;;;;;;1.83;1.07;;;;;;;;;;5034327;28;20032;-70
2022/07/31 03:10:17;;;;;;;5.00;1.10;;;;;;;;;;5042863;28;20525;-70
2022/07/31 03:12:45;;;;;;;6.80;1.03;;;;;;;;;;5049253;28;20021;-71
2022/07/31 03:15:13;;;;;;;2.73;1.93;;;;;;;;;;5049176;28;20025;-70
2022/07/31 03:17:41;;;;;;;2.13;1.33;;;;;;;;;;5048667;28;20029;-70
2022/07/31 03:20:08;;;;;;;2.97;1.80;;;;;;;;;;5040574;28;20049;-70
2022/07/31 03:22:35;;;;;;;4.80;1.73;;;;;;;;;;5033751;28;20022;-70
2022/07/31 03:25:03;;;;;;;1.13;0.60;;;;;;;;;;5034006;28;20469;-70
2022/07/31 03:27:29;;;;;;;1.77;1.03;;;;;;;;;;5033794;28;20101;-70
2022/07/31 03:29:56;;;;;;;0.93;0.70;;;;;;;;;;5041484;28;20021;-71
2022/07/31 03:32:23;;;;;;;9.50;0.90;;;;;;;;;;5043029;28;20032;-70
2022/07/31 03:34:50;;;;;;;1.13;0.70;;;;;;;;;;5028700;28;20027;-70
2022/07/31 03:37:17;;;;;;;3.27;1.13;;;;;;;;;;5028787;28;20453;-71
2022/07/31 03:39:43;;;;;;;6.40;1.13;;;;;;;;;;5029412;28;20056;-70
2022/07/31 03:42:11;;;;;;;1.60;1.00;;;;;;;;;;5038913;28;20029;-70
2022/07/31 03:44:39;;;;;;;2.83;0.90;;;;;;;;;;5053442;28;20479;-70
2022/07/31 03:47:06;;;;;;;7.47;1.30;;;;;;;;;;5053576;28;20021;-70
2022/07/31 03:49:33;;;;;;;1.83;1.10;;;;;;;;;;5048419;28;20040;-71
2022/07/31 03:52:00;;;;;;;2.47;1.00;;;;;;;;;;5033601;28;20021;-71
2022/07/31 03:54:27;;;;;;;1.10;0.63;;;;;;;;;;5031558;28;20499;-70
2022/07/31 03:56:54;;;;;;;2.07;0.97;;;;;;;;;;5028426;28;20080;-70
2022/07/31 03:59:21;;;;;;;2.50;1.20;;;;;;;;;;5030577;28;20033;-70
2022/07/31 04:01:48;;;;;;;2.17;1.07;;;;;;;;;;5033743;28;20483;-70
2022/07/31 04:04:17;;;;;;;4.17;0.93;;;;;;;;;;5029391;28;20036;-71
2022/07/31 04:06:43;;;;;;;0.97;0.60;;;;;;;;;;5032877;28;20029;-70
2022/07/31 04:09:10;;;;;;;1.80;1.03;;;;;;;;;;5033621;28;20431;-70
2022/07/31 04:11:37;;;;;;;3.70;1.20;;;;;;;;;;5053023;28;20078;-70
2022/07/31 04:14:04;;;;;;;0.90;0.67;;;;;;;;;;5052735;28;20075;-70
2022/07/31 04:16:30;;;;;;;2.53;1.27;;;;;;;;;;5045951;28;20369;-70
2022/07/31 04:18:57;;;;;;;1.27;0.70;;;;;;;;;;5027913;28;20029;-70
2022/07/31 04:21:24;;;;;;;0.83;0.70;;;;;;;;;;5027852;28;20033;-70
2022/07/31 04:23:50;;;;;;;2.30;0.80;;;;;;;;;;5027469;28;20380;-70
2022/07/31 04:26:17;;;;;;;2.73;0.83;;;;;;;;;;5031290;28;20580;-70
2022/07/31 04:28:44;;;;;;;1.67;0.80;;;;;;;;;;5050473;28;20071;-69
2022/07/31 04:31:10;;;;;;;1.80;0.83;;;;;;;;;;5052372;28;20028;-69
2022/07/31 04:33:37;;;;;;;2.23;0.87;;;;;;;;;;5052618;28;20025;-65
2022/07/31 04:36:04;;;;;;;0.63;0.30;;;;;;;;;;5051839;28;20028;-67
2022/07/31 04:38:31;;;;;;;0.70;0.50;;;;;;;;;;5051373;28;20024;-70
2022/07/31 04:40:57;;;;;;;0.70;0.43;;;;;;;;;;5047137;28;20379;-70
2022/07/31 04:43:24;;;;;;;1.13;0.63;;;;;;;;;;5044315;28;20048;-71
2022/07/31 04:45:51;;;;;;;0.50;0.37;;;;;;;;;;5047347;28;20045;-71
2022/07/31 04:48:17;;;;;;;1.30;0.87;;;;;;;;;;5027938;28;20127;-71
2022/07/31 04:50:44;;;;;;;2.13;1.07;;;;;;;;;;5032283;28;20029;-71
2022/07/31 04:53:11;;;;;;;1.07;0.77;;;;;;;;;;5032437;28;20104;-70
2022/07/31 04:55:37;;;;;;;0.70;0.47;;;;;;;;;;5032345;28;20026;-70
2022/07/31 04:58:04;;;;;;;4.57;1.33;;;;;;;;;;5048535;28;20055;-71
2022/07/31 05:00:31;;;;;;;4.50;1.50;;;;;;;;;;5051900;28;20091;-71
2022/07/31 05:02:57;;;;;;;3.77;2.03;;;;;;;;;;5047081;28;20021;-71
2022/07/31 05:05:24;;;;;;;2.13;1.17;;;;;;;;;;5046811;28;20025;-71
2022/07/31 05:07:51;;;;;;;4.40;1.93;;;;;;;;;;5031732;28;20556;-70
2022/07/31 05:13:02;;;;;;;1.27;0.68;;;;;;;;;;5031956;28;20084;-70
2022/07/31 05:15:29;;;;;;;1.27;0.77;;;;;;;;;;5032180;28;20100;-70
2022/07/31 05:17:56;;;;;;;3.47;1.57;;;;;;;;;;5047203;28;20056;-70
2022/07/31 05:20:22;;;;;;;1.90;1.13;;;;;;;;;;5051941;28;20017;-71
2022/07/31 05:22:49;;;;;;;3.13;1.80;;;;;;;;;;5051324;28;20025;-70
2022/07/31 05:25:16;;;;;;;6.80;1.63;;;;;;;;;;5046823;28;20087;-70
2022/07/31 05:27:42;;;;;;;2.43;1.20;;;;;;;;;;5033146;28;20022;-70
2022/07/31 05:30:09;;;;;;;3.37;1.50;;;;;;;;;;5026978;28;20025;-70
2022/07/31 05:32:36;;;;;;;11.43;1.47;;;;;;;;;;5026746;28;20096;-70
2022/07/31 05:35:03;;;;;;;2.50;1.20;;;;;;;;;;5031691;28;20045;-70
2022/07/31 05:37:29;;;;;;;7.83;1.23;;;;;;;;;;5042827;28;20086;-70
2022/07/31 05:39:56;;;;;;;1.77;0.83;;;;;;;;;;5051664;28;20021;-71
2022/07/31 05:42:23;;;;;;;6.90;1.33;;;;;;;;;;5051762;28;20108;-70
2022/07/31 05:44:49;;;;;;;0.93;0.60;;;;;;;;;;5051585;28;20392;-71
2022/07/31 05:47:16;;;;;;;2.17;1.20;;;;;;;;;;5037250;28;20030;-70
2022/07/31 05:49:43;;;;;;;2.97;1.20;;;;;;;;;;5026629;28;20094;-70
2022/07/31 05:52:09;;;;;;;1.70;0.80;;;;;;;;;;5026880;28;20033;-70
2022/07/31 05:54:36;;;;;;;0.27;0.27;;;;;;;;;;5027751;28;20033;-70
2022/07/31 05:57:03;;;;;;;2.00;1.13;;;;;;;;;;5040957;28;20035;-70
2022/07/31 05:59:31;;;;;;;1.23;0.73;;;;;;;;;;5055515;28;20029;-70
2022/07/31 06:01:58;;;;;;;1.50;0.70;;;;;;;;;;5054917;28;20183;-70
2022/07/31 06:04:25;;;;;;;2.27;1.43;;;;;;;;;;5055213;28;20036;-70
2022/07/31 06:06:52;;;;;;;1.53;0.70;;;;;;;;;;5049958;28;20025;-70
2022/07/31 06:09:19;;;;;;;2.70;1.23;;;;;;;;;;5030677;28;20033;-70
2022/07/31 06:11:45;;;;;;;2.53;1.33;;;;;;;;;;5030234;28;20022;-70
2022/07/31 06:14:12;;;;;;;2.57;1.23;;;;;;;;;;5029787;28;20421;-71
2022/07/31 06:16:39;;;;;;;1.80;1.17;;;;;;;;;;5032664;28;20031;-70
2022/07/31 06:19:05;;;;;;;2.23;1.30;;;;;;;;;;5053388;28;20025;-70
2022/07/31 06:21:32;;;;;;;1.03;0.53;;;;;;;;;;5054994;28;20064;-70
2022/07/31 06:23:59;;;;;;;2.63;1.70;;;;;;;;;;5053977;28;20383;-70
2022/07/31 06:26:25;;;;;;;1.60;0.90;;;;;;;;;;5053721;28;20025;-69
2022/07/31 06:28:53;;;;;;;9.37;1.07;;;;;;;;;;5034983;28;20033;-70
2022/07/31 06:31:20;;;;;;;9.57;0.93;;;;;;;;;;5030393;28;20032;-70
2022/07/31 06:33:47;;;;;;;1.27;0.70;;;;;;;;;;5029849;28;20025;-70
2022/07/31 06:36:13;;;;;;;1.67;1.27;;;;;;;;;;5029649;28;20134;-70
2022/07/31 06:38:40;;;;;;;0.80;0.70;;;;;;;;;;5048350;28;20021;-70
2022/07/31 06:41:07;;;;;;;2.83;0.80;;;;;;;;;;5052837;28;20039;-70
2022/07/31 06:43:33;;;;;;;0.60;0.50;;;;;;;;;;5052755;28;20037;-70
2022/07/31 06:46:00;;;;;;;2.27;0.47;;;;;;;;;;5054545;28;20021;-70
2022/07/31 06:48:27;;;;;;;0.93;0.67;;;;;;;;;;5054405;28;20091;-70
2022/07/31 06:50:53;;;;;;;1.50;0.90;;;;;;;;;;5054416;28;20017;-70
2022/07/31 06:53:20;;;;;;;1.70;1.00;;;;;;;;;;5049625;28;20032;-70
2022/07/31 06:55:47;;;;;;;1.70;0.57;;;;;;;;;;5029318;28;20033;-70
2022/07/31 06:58:13;;;;;;;1.07;0.77;;;;;;;;;;5029414;28;20025;-70
2022/07/31 07:00:40;;;;;;;2.07;0.90;;;;;;;;;;5029177;28;20391;-70
2022/07/31 07:03:06;;;;;;;2.33;0.73;;;;;;;;;;5032068;28;20147;-70
2022/07/31 07:05:33;;;;;;;1.53;0.83;;;;;;;;;;5052079;28;20416;-70
2022/07/31 07:08:00;;;;;;;1.43;0.80;;;;;;;;;;5053639;28;20387;-70
2022/07/31 07:10:26;;;;;;;0.50;0.50;;;;;;;;;;5053639;28;20538;-70
2022/07/31 07:12:53;;;;;;;0.67;0.50;;;;;;;;;;5054131;28;20021;-70
2022/07/31 07:15:20;;;;;;;1.20;0.90;;;;;;;;;;5034024;28;20029;-70
2022/07/31 07:17:47;;;;;;;3.00;1.17;;;;;;;;;;5028984;28;20104;-70
2022/07/31 07:20:13;;;;;;;0.60;0.60;;;;;;;;;;5028836;28;20022;-70
2022/07/31 07:22:40;;;;;;;0.47;0.43;;;;;;;;;;5027423;28;20482;-70
2022/07/31 07:25:07;;;;;;;1.10;0.50;;;;;;;;;;5044898;28;20037;-70
2022/07/31 07:27:33;;;;;;;1.60;0.80;;;;;;;;;;5053794;28;20021;-70
2022/07/31 07:30:00;;;;;;;1.13;0.67;;;;;;;;;;5053636;28;20063;-70
2022/07/31 07:32:27;;;;;;;1.63;0.90;;;;;;;;;;5053602;28;20463;-70
2022/07/31 07:34:53;;;;;;;5.00;1.13;;;;;;;;;;5041126;28;20045;-70
2022/07/31 07:37:20;;;;;;;1.20;0.53;;;;;;;;;;5030873;28;20053;-70
2022/07/31 07:39:47;;;;;;;1.17;0.77;;;;;;;;;;5028419;28;20032;-70
2022/07/31 07:42:13;;;;;;;3.10;1.17;;;;;;;;;;5027824;28;20068;-70
2022/07/31 07:44:40;;;;;;;1.13;0.80;;;;;;;;;;5038169;28;20503;-70
2022/07/31 07:47:07;;;;;;;1.20;0.63;;;;;;;;;;5050426;28;20488;-70
2022/07/31 07:49:34;;;;;;;0.63;0.50;;;;;;;;;;5053213;28;20029;-70
2022/07/31 07:52:01;;;;;;;1.80;0.90;;;;;;;;;;5053368;28;20025;-70
2022/07/31 07:54:28;;;;;;;2.30;0.60;;;;;;;;;;5044938;28;20033;-70
2022/07/31 07:56:55;;;;;;;1.27;0.83;;;;;;;;;;5033220;28;20073;-70
2022/07/31 07:59:22;;;;;;;0.93;0.60;;;;;;;;;;5030281;28;20025;-70
2022/07/31 08:01:49;;;;;;;3.73;0.80;;;;;;;;;;5028056;28;20426;-70
2022/07/31 08:04:15;;;;;;;3.03;0.70;;;;;;;;;;5033865;28;20495;-70
2022/07/31 08:06:42;;;;;;;1.87;0.87;;;;;;;;;;5047835;28;20021;-70
2022/07/31 08:09:09;;;;;;;1.90;0.90;;;;;;;;;;5049637;28;20472;-70
2022/07/31 08:11:36;;;;;;;0.57;0.50;;;;;;;;;;5052924;28;20017;-70
2022/07/31 08:14:02;;;;;;;2.07;1.03;;;;;;;;;;5049862;28;20111;-70
2022/07/31 08:16:29;;;;;;;3.17;2.03;;;;;;;;;;5044534;28;20029;-70
2022/07/31 08:18:56;;;;;;;2.20;1.47;;;;;;;;;;5050232;28;20032;-70
2022/07/31 08:21:22;;;;;;;3.47;1.70;;;;;;;;;;5050662;28;20029;-70
2022/07/31 08:23:51;;;;;;;0.60;0.53;;;;;;;;;;5045340;28;20025;-70
2022/07/31 08:26:18;;;;;;;1.67;1.27;;;;;;;;;;5027709;28;20522;-70
2022/07/31 08:28:44;;;;;;;5.20;1.73;;;;;;;;;;5027663;28;20376;-70
2022/07/31 08:31:11;;;;;;;4.40;1.83;;;;;;;;;;5028437;28;20029;-70
2022/07/31 08:33:38;;;;;;;2.63;1.17;;;;;;;;;;5032698;28;20497;-70
2022/07/31 08:36:07;;;;;;;6.50;1.23;;;;;;;;;;5052407;28;20075;-70
2022/07/31 08:38:35;;;;;;;1.90;1.60;;;;;;;;;;5052621;28;20029;-70
2022/07/31 08:41:02;;;;;;;2.20;1.70;;;;;;;;;;5052461;28;20060;-69
2022/07/31 08:43:30;;;;;;;7.63;1.47;;;;;;;;;;5048465;28;20037;-70
2022/07/31 08:46:01;;;;;;;4.10;1.73;;;;;;;;;;5028189;28;20025;-70
2022/07/31 08:48:29;;;;;;;1.83;1.60;;;;;;;;;;5027376;28;20026;-70
2022/07/31 08:50:56;;;;;;;3.90;2.37;;;;;;;;;;5027210;28;20022;-70
2022/07/31 08:53:24;;;;;;;1.53;1.23;;;;;;;;;;5028824;28;20100;-70
2022/07/31 08:55:51;;;;;;;5.40;1.73;;;;;;;;;;5034560;28;20154;-70
2022/07/31 08:58:19;;;;;;;1.90;1.13;;;;;;;;;;5051149;28;20415;-70
2022/07/31 09:00:45;;;;;;;2.13;1.37;;;;;;;;;;5049871;28;20029;-70
2022/07/31 09:03:12;;;;;;;1.40;1.00;;;;;;;;;;5051943;28;20025;-70
2022/07/31 09:05:39;;;;;;;2.37;1.67;;;;;;;;;;5049656;28;20025;-70
2022/07/31 09:08:05;;;;;;;1.07;0.97;;;;;;;;;;5027115;28;20041;-70
2022/07/31 09:10:32;;;;;;;1.23;0.50;;;;;;;;;;5027201;28;20108;-70
2022/07/31 09:12:59;;;;;;;2.20;1.00;;;;;;;;;;5027131;28;20025;-70
2022/07/31 09:15:27;;;;;;;1.77;1.50;;;;;;;;;;5027861;28;20104;-70
2022/07/31 09:17:54;;;;;;;2.43;1.80;;;;;;;;;;5050691;28;20468;-70
2022/07/31 09:20:23;;;;;;;2.13;1.80;;;;;;;;;;5051677;28;20033;-70
2022/07/31 09:22:53;;;;;;;2.57;1.60;;;;;;;;;;5052029;28;20039;-70
2022/07/31 09:25:20;;;;;;;1.63;1.10;;;;;;;;;;5052057;28;20079;-70
2022/07/31 09:27:49;;;;;;;1.97;1.30;;;;;;;;;;5046426;28;20073;-70
2022/07/31 09:30:16;;;;;;;0.50;0.50;;;;;;;;;;5028947;28;20345;-70
2022/07/31 09:32:44;;;;;;;2.33;1.50;;;;;;;;;;5030788;28;20350;-70
2022/07/31 09:35:12;;;;;;;1.87;0.97;;;;;;;;;;5030818;28;20116;-70
2022/07/31 09:37:39;;;;;;;0.87;0.83;;;;;;;;;;5047455;28;20024;-70
2022/07/31 09:40:07;;;;;;;1.50;0.87;;;;;;;;;;5055833;28;20029;-70
2022/07/31 09:42:37;;;;;;;0.80;0.70;;;;;;;;;;5055688;28;20029;-70
2022/07/31 09:45:05;;;;;;;2.37;1.50;;;;;;;;;;5055596;28;20047;-70
2022/07/31 09:47:32;;;;;;;1.37;1.10;;;;;;;;;;5040523;28;20357;-70
2022/07/31 09:50:02;;;;;;;1.90;1.30;;;;;;;;;;5034209;28;20498;-70
2022/07/31 09:52:30;;;;;;;1.27;0.97;;;;;;;;;;5030323;28;20104;-70
2022/07/31 09:55:01;;;;;;;2.30;1.40;;;;;;;;;;5030203;28;20025;-70
2022/07/31 09:57:27;;;;;;;2.67;1.50;;;;;;;;;;5044154;28;20074;-70
2022/07/31 09:59:55;;;;;;;2.07;1.37;;;;;;;;;;5050937;28;20056;-72
2022/07/31 10:02:24;;;;;;;0.83;0.60;;;;;;;;;;5055237;28;20082;-72
2022/07/31 10:04:54;;;;;;;15.67;1.43;;;;;;;;;;5055220;28;20017;-71
2022/07/31 10:07:24;;;;;;;3.63;1.57;;;;;;;;;;5041848;28;20017;-71
2022/07/31 10:09:53;;;;;;;1.83;1.27;;;;;;;;;;5035418;28;20030;-71
2022/07/31 10:12:21;;;;;;;0.97;0.83;;;;;;;;;;5033133;28;20091;-72
2022/07/31 10:14:50;;;;;;;2.83;0.60;;;;;;;;;;5029908;28;20060;-71
2022/07/31 10:17:20;;;;;;;0.57;0.57;;;;;;;;;;5041955;28;20166;-71
2022/07/31 10:19:48;;;;;;;1.50;1.17;;;;;;;;;;5049875;28;20029;-72
2022/07/31 10:22:18;;;;;;;2.20;1.40;;;;;;;;;;5051241;28;20033;-71
2022/07/31 10:24:46;;;;;;;2.67;1.17;;;;;;;;;;5054864;28;20019;-71
2022/07/31 10:27:15;;;;;;;1.33;1.10;;;;;;;;;;5042426;28;20069;-72
2022/07/31 10:29:42;;;;;;;2.07;1.37;;;;;;;;;;5034783;28;20104;-71
2022/07/31 10:32:09;;;;;;;0.97;0.57;;;;;;;;;;5034902;28;20021;-72
2022/07/31 10:34:36;;;;;;;0.83;0.70;;;;;;;;;;5032890;28;20435;-72
2022/07/31 10:37:09;;;;;;;2.73;1.30;;;;;;;;;;5039291;28;20037;-71
2022/07/31 10:39:54;;;;;;;1.60;1.23;;;;;;;;;;5049507;28;20430;-72
2022/07/31 10:42:33;;;;;;;1.30;1.05;;;;;;;;;;5048460;28;20167;-72
2022/07/31 10:45:09;;;;;;;3.37;1.37;;;;;;;;;;5051958;28;20036;-71
2022/07/31 10:47:37;;;;;;;1.73;1.33;;;;;;;;;;5039576;28;20395;-72
2022/07/31 10:50:04;;;;;;;1.10;0.93;;;;;;;;;;5034142;28;20036;-72
2022/07/31 10:52:34;;;;;;;1.30;1.10;;;;;;;;;;5034758;28;20497;-72
2022/07/31 10:55:01;;;;;;;3.93;1.97;;;;;;;;;;5034578;28;20029;-71
2022/07/31 10:57:29;;;;;;;4.87;2.43;;;;;;;;;;5043668;28;20111;-71
2022/07/31 10:59:56;;;;;;;1.70;1.23;;;;;;;;;;5049071;28;20488;-71
2022/07/31 11:02:30;;;;;;;4.97;1.63;;;;;;;;;;5049057;28;20036;-71
2022/07/31 11:05:10;;;;;;;1.53;0.90;;;;;;;;;;5048901;28;20021;-72
2022/07/31 11:07:36;;;;;;;3.53;2.00;;;;;;;;;;5038161;28;20033;-71
2022/07/31 11:10:13;;;;;;;3.60;1.53;;;;;;;;;;5032863;28;20102;-71
2022/07/31 11:12:40;;;;;;;2.87;1.47;;;;;;;;;;5034900;28;20025;-71
2022/07/31 11:15:23;;;;;;;2.17;1.80;;;;;;;;;;5033905;28;20029;-72
2022/07/31 11:17:50;;;;;;;2.20;1.50;;;;;;;;;;5034113;28;20025;-71
2022/07/31 11:20:19;;;;;;;1.57;1.10;;;;;;;;;;5028990;28;20029;-72
2022/07/31 11:22:57;;;;;;;1.87;1.33;;;;;;;;;;5029624;28;20065;-72
2022/07/31 11:25:24;;;;;;;1.77;1.53;;;;;;;;;;5028623;28;20091;-72
2022/07/31 11:27:51;;;;;;;10.23;1.93;;;;;;;;;;5028665;28;20036;-72
2022/07/31 11:30:18;;;;;;;1.97;1.60;;;;;;;;;;5032798;28;20366;-72
2022/07/31 11:32:48;;;;;;;1.80;1.40;;;;;;;;;;5039373;28;20017;-71
2022/07/31 11:35:35;;;;;;;2.73;1.87;;;;;;;;;;5053727;28;20024;-71
2022/07/31 11:38:02;;;;;;;1.07;0.97;;;;;;;;;;5053286;28;20533;-72
2022/07/31 11:40:29;;;;;;;1.30;1.07;;;;;;;;;;5053337;28;20044;-71
2022/07/31 11:42:57;;;;;;;3.17;1.30;;;;;;;;;;5040659;28;20036;-72
2022/07/31 11:45:23;;;;;;;2.67;1.37;;;;;;;;;;5028327;28;20025;-72
2022/07/31 11:47:50;;;;;;;0.87;0.83;;;;;;;;;;5028312;28;20025;-72
2022/07/31 11:50:17;;;;;;;1.87;1.33;;;;;;;;;;5027795;28;20022;-72
2022/07/31 11:52:46;;;;;;;2.53;1.27;;;;;;;;;;5037982;28;20020;-71
2022/07/31 11:55:14;;;;;;;4.27;1.27;;;;;;;;;;5053014;28;20017;-72
2022/07/31 11:57:41;;;;;;;0.70;0.70;;;;;;;;;;5053225;28;20025;-72
2022/07/31 12:00:09;;;;;;;2.30;1.20;;;;;;;;;;5053074;28;20430;-72
2022/07/31 12:02:39;;;;;;;2.20;1.40;;;;;;;;;;5048705;28;20494;-71
2022/07/31 12:05:06;;;;;;;1.37;0.90;;;;;;;;;;5027637;28;20107;-72
2022/07/31 12:07:33;;;;;;;2.23;1.53;;;;;;;;;;5027929;28;20045;-71
2022/07/31 12:10:00;;;;;;;1.33;1.00;;;;;;;;;;5027967;28;20032;-71
2022/07/31 12:12:26;;;;;;;1.67;1.10;;;;;;;;;;5029857;28;20056;-72
2022/07/31 12:14:53;;;;;;;0.83;0.67;;;;;;;;;;5052252;28;20039;-71
2022/07/31 12:17:21;;;;;;;3.27;1.33;;;;;;;;;;5052920;28;20506;-72
2022/07/31 12:19:48;;;;;;;1.80;1.17;;;;;;;;;;5052705;28;20027;-72
2022/07/31 12:22:19;;;;;;;5.07;1.20;;;;;;;;;;5051367;28;20029;-72
2022/07/31 12:24:46;;;;;;;1.30;0.93;;;;;;;;;;5032814;28;20029;-72
2022/07/31 12:27:17;;;;;;;1.40;0.73;;;;;;;;;;5027575;28;20030;-72
2022/07/31 12:29:44;;;;;;;1.30;1.10;;;;;;;;;;5033966;28;20776;-72
2022/07/31 12:32:11;;;;;;;2.23;1.47;;;;;;;;;;5029843;28;20030;-72
2022/07/31 12:34:38;;;;;;;2.50;1.20;;;;;;;;;;5027119;28;20053;-72
2022/07/31 12:37:08;;;;;;;1.93;1.27;;;;;;;;;;5032026;28;20025;-71
2022/07/31 12:39:39;;;;;;;1.20;1.10;;;;;;;;;;5037572;28;20036;-72
2022/07/31 12:42:06;;;;;;;11.37;1.43;;;;;;;;;;5052459;28;20082;-71
2022/07/31 12:44:33;;;;;;;2.10;1.17;;;;;;;;;;5052289;28;20032;-72
2022/07/31 12:46:59;;;;;;;1.47;1.13;;;;;;;;;;5052082;28;20028;-72
2022/07/31 12:49:26;;;;;;;1.23;1.10;;;;;;;;;;5042654;28;20022;-72
2022/07/31 12:51:53;;;;;;;11.93;1.93;;;;;;;;;;5027307;28;20423;-72
2022/07/31 12:54:19;;;;;;;3.17;1.90;;;;;;;;;;5027174;28;20071;-72
2022/07/31 12:56:46;;;;;;;0.93;0.77;;;;;;;;;;5027156;28;20389;-72
2022/07/31 12:59:13;;;;;;;4.97;1.67;;;;;;;;;;5032555;28;20022;-72
2022/07/31 13:01:40;;;;;;;11.30;1.77;;;;;;;;;;5032339;28;20388;-71
2022/07/31 13:04:08;;;;;;;2.63;1.57;;;;;;;;;;5031470;28;20026;-72
2022/07/31 13:06:36;;;;;;;2.43;1.47;;;;;;;;;;5031871;28;20024;-72
2022/07/31 13:09:03;;;;;;;2.07;1.50;;;;;;;;;;5032382;28;20091;-72
2022/07/31 13:11:32;;;;;;;1.80;1.20;;;;;;;;;;5046554;28;20028;-72
2022/07/31 13:13:58;;;;;;;1.63;1.50;;;;;;;;;;5047015;28;20021;-72
2022/07/31 13:16:25;;;;;;;4.07;1.73;;;;;;;;;;5046875;28;20024;-72
2022/07/31 13:18:52;;;;;;;3.30;1.93;;;;;;;;;;5046669;28;20029;-72
2022/07/31 13:21:19;;;;;;;3.07;1.73;;;;;;;;;;5043609;28;20037;-72
2022/07/31 13:23:45;;;;;;;2.17;1.87;;;;;;;;;;5032156;28;20021;-71
2022/07/31 13:26:12;;;;;;;2.40;1.93;;;;;;;;;;5032181;28;20036;-71
2022/07/31 13:28:39;;;;;;;3.63;2.50;;;;;;;;;;5032025;28;20025;-72
2022/07/31 13:31:05;;;;;;;1.93;1.57;;;;;;;;;;5047413;28;20029;-72
2022/07/31 13:33:32;;;;;;;1.77;1.47;;;;;;;;;;5047472;28;20025;-72
2022/07/31 13:35:59;;;;;;;5.33;1.83;;;;;;;;;;5046559;28;20059;-72
2022/07/31 13:38:26;;;;;;;2.87;1.73;;;;;;;;;;5046176;28;20027;-72
2022/07/31 13:43:37;;;;;;;5.22;2.33;;;;;;;;;;5050931;28;20470;-72
2022/07/31 13:46:04;;;;;;;5.07;2.30;;;;;;;;;;5051837;28;20468;-72
2022/07/31 13:48:32;;;;;;;8.47;1.93;;;;;;;;;;5051809;28;20029;-72
2022/07/31 13:50:58;;;;;;;11.07;2.50;;;;;;;;;;5050979;28;20025;-72
2022/07/31 13:53:25;;;;;;;1.83;1.43;;;;;;;;;;5051581;28;20641;-72
2022/07/31 13:55:52;;;;;;;2.50;1.50;;;;;;;;;;5046848;28;20036;-72
2022/07/31 13:58:19;;;;;;;3.63;1.57;;;;;;;;;;5046648;28;20048;-72
2022/07/31 14:00:46;;;;;;;8.53;1.80;;;;;;;;;;5034194;28;20029;-72
2022/07/31 14:03:13;;;;;;;5.37;2.33;;;;;;;;;;5026518;28;20025;-72
2022/07/31 14:05:40;;;;;;;1.50;1.10;;;;;;;;;;5030325;28;20099;-72
2022/07/31 14:08:06;;;;;;;1.73;0.97;;;;;;;;;;5031582;28;20076;-72
2022/07/31 14:10:33;;;;;;;3.93;1.67;;;;;;;;;;5041104;28;20497;-72
2022/07/31 14:13:00;;;;;;;2.47;1.40;;;;;;;;;;5051661;28;20103;-72
2022/07/31 14:15:26;;;;;;;4.00;1.60;;;;;;;;;;5051575;28;20388;-72
2022/07/31 14:17:53;;;;;;;2.13;1.23;;;;;;;;;;5050062;28;20036;-72
2022/07/31 14:20:20;;;;;;;1.27;1.00;;;;;;;;;;5041749;28;20025;-72
2022/07/31 14:22:46;;;;;;;3.37;1.07;;;;;;;;;;5029545;28;20025;-72
2022/07/31 14:25:13;;;;;;;1.77;1.10;;;;;;;;;;5030010;28;20030;-72
2022/07/31 14:27:40;;;;;;;3.23;1.43;;;;;;;;;;5033163;28;20152;-72
2022/07/31 14:30:07;;;;;;;5.13;1.17;;;;;;;;;;5040304;28;20150;-72
2022/07/31 14:32:34;;;;;;;2.93;1.60;;;;;;;;;;5054737;28;20018;-72
2022/07/31 14:35:00;;;;;;;3.73;1.80;;;;;;;;;;5054732;28;20024;-72
2022/07/31 14:37:27;;;;;;;3.03;1.10;;;;;;;;;;5054453;28;20018;-72
2022/07/31 14:39:54;;;;;;;2.93;1.73;;;;;;;;;;5046657;28;20056;-72
2022/07/31 14:42:20;;;;;;;10.93;1.13;;;;;;;;;;5029582;28;20044;-72
2022/07/31 14:44:47;;;;;;;5.97;1.47;;;;;;;;;;5029154;28;20061;-72
2022/07/31 14:47:14;;;;;;;3.47;1.20;;;;;;;;;;5029450;28;20052;-72
2022/07/31 14:49:40;;;;;;;1.83;1.00;;;;;;;;;;5033779;28;20095;-72